sensor_id;sensor_type;location;lat;lon;timestamp;P1;durP1;ratioP1;P2;durP2;ratioP2
36651;SDS011;53334;51.976;20.144;2024-01-30T00:01:25;16.23;;;13.10;;
36651;SDS011;53334;51.976;20.144;2024-01-30T00:03:58;19.63;;;12.73;;
36651;SDS011;53334;51.976;20.144;2024-01-30T00:06:31;18.45;;;12.93;;
36651;SDS011;53334;51.976;20.144;2024-01-30T00:09:05;16.70;;;11.50;;
36651;SDS011;53334;51.976;20.144;2024-01-30T00:11:38;18.90;;;13.98;;
36651;SDS011;53334;51.976;20.144;2024-01-30T00:14:13;16.60;;;12.68;;
36651;SDS011;53334;51.976;20.144;2024-01-30T00:16:46;21.20;;;13.13;;
36651;SDS011;53334;51.976;20.144;2024-01-30T00:19:19;17.83;;;12.75;;
36651;SDS011;53334;51.976;20.144;2024-01-30T00:21:53;18.48;;;12.88;;
36651;SDS011;53334;51.976;20.144;2024-01-30T00:24:26;17.20;;;13.10;;
36651;SDS011;53334;51.976;20.144;2024-01-30T00:26:59;17.27;;;12.48;;
36651;SDS011;53334;51.976;20.144;2024-01-30T00:29:34;14.43;;;11.30;;
36651;SDS011;53334;51.976;20.144;2024-01-30T00:32:07;17.73;;;12.73;;
36651;SDS011;53334;51.976;20.144;2024-01-30T00:34:41;15.77;;;12.13;;
36651;SDS011;53334;51.976;20.144;2024-01-30T00:37:14;16.10;;;12.15;;
36651;SDS011;53334;51.976;20.144;2024-01-30T00:39:48;17.35;;;13.18;;
36651;SDS011;53334;51.976;20.144;2024-01-30T00:42:21;15.55;;;12.43;;
36651;SDS011;53334;51.976;20.144;2024-01-30T00:50:05;16.90;;;12.43;;
36651;SDS011;53334;51.976;20.144;2024-01-30T00:52:38;15.40;;;12.00;;
36651;SDS011;53334;51.976;20.144;2024-01-30T00:55:13;16.98;;;12.63;;
36651;SDS011;53334;51.976;20.144;2024-01-30T00:57:46;16.92;;;12.70;;
36651;SDS011;53334;51.976;20.144;2024-01-30T01:00:21;15.32;;;11.85;;
36651;SDS011;53334;51.976;20.144;2024-01-30T01:03:00;15.23;;;12.02;;
36651;SDS011;53334;51.976;20.144;2024-01-30T01:08:07;14.90;;;11.57;;
36651;SDS011;53334;51.976;20.144;2024-01-30T01:10:40;19.50;;;12.40;;
36651;SDS011;53334;51.976;20.144;2024-01-30T01:13:14;16.42;;;11.40;;
36651;SDS011;53334;51.976;20.144;2024-01-30T01:15:48;14.95;;;12.10;;
36651;SDS011;53334;51.976;20.144;2024-01-30T01:18:21;16.65;;;12.30;;
36651;SDS011;53334;51.976;20.144;2024-01-30T01:20:55;16.35;;;12.10;;
36651;SDS011;53334;51.976;20.144;2024-01-30T01:23:28;17.60;;;11.65;;
36651;SDS011;53334;51.976;20.144;2024-01-30T01:26:01;16.63;;;12.75;;
36651;SDS011;53334;51.976;20.144;2024-01-30T01:28:34;17.52;;;12.20;;
36651;SDS011;53334;51.976;20.144;2024-01-30T01:31:09;13.40;;;10.70;;
36651;SDS011;53334;51.976;20.144;2024-01-30T01:33:43;15.77;;;11.77;;
36651;SDS011;53334;51.976;20.144;2024-01-30T01:36:16;13.63;;;10.70;;
36651;SDS011;53334;51.976;20.144;2024-01-30T01:38:50;16.50;;;10.75;;
36651;SDS011;53334;51.976;20.144;2024-01-30T01:41:23;16.23;;;12.00;;
36651;SDS011;53334;51.976;20.144;2024-01-30T01:43:56;16.20;;;11.55;;
36651;SDS011;53334;51.976;20.144;2024-01-30T01:46:32;15.20;;;12.02;;
36651;SDS011;53334;51.976;20.144;2024-01-30T01:49:06;14.07;;;11.40;;
36651;SDS011;53334;51.976;20.144;2024-01-30T01:51:40;14.48;;;10.75;;
36651;SDS011;53334;51.976;20.144;2024-01-30T01:54:16;13.65;;;11.00;;
36651;SDS011;53334;51.976;20.144;2024-01-30T01:59:23;13.65;;;10.80;;
36651;SDS011;53334;51.976;20.144;2024-01-30T02:01:58;15.48;;;10.98;;
36651;SDS011;53334;51.976;20.144;2024-01-30T02:04:34;16.35;;;11.75;;
36651;SDS011;53334;51.976;20.144;2024-01-30T02:09:40;14.85;;;11.55;;
36651;SDS011;53334;51.976;20.144;2024-01-30T02:12:14;13.77;;;11.23;;
36651;SDS011;53334;51.976;20.144;2024-01-30T02:14:47;13.00;;;10.50;;
36651;SDS011;53334;51.976;20.144;2024-01-30T02:17:23;15.77;;;11.93;;
36651;SDS011;53334;51.976;20.144;2024-01-30T02:19:56;14.18;;;10.85;;
36651;SDS011;53334;51.976;20.144;2024-01-30T02:22:31;17.13;;;12.15;;
36651;SDS011;53334;51.976;20.144;2024-01-30T02:25:06;14.88;;;11.05;;
36651;SDS011;53334;51.976;20.144;2024-01-30T02:27:40;14.88;;;10.85;;
36651;SDS011;53334;51.976;20.144;2024-01-30T02:30:13;16.90;;;11.43;;
36651;SDS011;53334;51.976;20.144;2024-01-30T02:32:47;14.38;;;11.52;;
36651;SDS011;53334;51.976;20.144;2024-01-30T02:35:20;14.93;;;11.15;;
36651;SDS011;53334;51.976;20.144;2024-01-30T02:37:55;15.90;;;11.30;;
36651;SDS011;53334;51.976;20.144;2024-01-30T02:40:28;13.48;;;10.93;;
36651;SDS011;53334;51.976;20.144;2024-01-30T02:43:02;15.15;;;11.77;;
36651;SDS011;53334;51.976;20.144;2024-01-30T02:45:36;14.50;;;10.27;;
36651;SDS011;53334;51.976;20.144;2024-01-30T02:48:09;14.93;;;11.35;;
36651;SDS011;53334;51.976;20.144;2024-01-30T02:50:42;15.07;;;11.23;;
36651;SDS011;53334;51.976;20.144;2024-01-30T02:53:17;14.82;;;10.85;;
36651;SDS011;53334;51.976;20.144;2024-01-30T02:55:50;14.07;;;11.32;;
36651;SDS011;53334;51.976;20.144;2024-01-30T02:58:23;13.73;;;10.95;;
36651;SDS011;53334;51.976;20.144;2024-01-30T03:00:56;15.80;;;11.68;;
36651;SDS011;53334;51.976;20.144;2024-01-30T03:03:30;14.88;;;10.95;;
36651;SDS011;53334;51.976;20.144;2024-01-30T03:06:03;15.02;;;10.32;;
36651;SDS011;53334;51.976;20.144;2024-01-30T03:08:39;14.15;;;10.77;;
36651;SDS011;53334;51.976;20.144;2024-01-30T03:11:12;13.07;;;10.88;;
36651;SDS011;53334;51.976;20.144;2024-01-30T03:13:45;14.02;;;11.23;;
36651;SDS011;53334;51.976;20.144;2024-01-30T03:16:18;16.27;;;12.25;;
36651;SDS011;53334;51.976;20.144;2024-01-30T03:18:52;13.85;;;10.85;;
36651;SDS011;53334;51.976;20.144;2024-01-30T03:21:25;14.65;;;11.65;;
36651;SDS011;53334;51.976;20.144;2024-01-30T03:23:59;14.05;;;9.80;;
36651;SDS011;53334;51.976;20.144;2024-01-30T03:26:33;13.65;;;9.93;;
36651;SDS011;53334;51.976;20.144;2024-01-30T03:29:06;15.13;;;11.50;;
36651;SDS011;53334;51.976;20.144;2024-01-30T03:31:39;13.02;;;10.65;;
36651;SDS011;53334;51.976;20.144;2024-01-30T03:34:12;13.60;;;10.93;;
36651;SDS011;53334;51.976;20.144;2024-01-30T03:36:46;16.60;;;11.90;;
36651;SDS011;53334;51.976;20.144;2024-01-30T03:39:20;15.82;;;11.63;;
36651;SDS011;53334;51.976;20.144;2024-01-30T03:41:54;12.00;;;9.60;;
36651;SDS011;53334;51.976;20.144;2024-01-30T03:47:00;12.13;;;10.13;;
36651;SDS011;53334;51.976;20.144;2024-01-30T03:49:34;15.05;;;10.35;;
36651;SDS011;53334;51.976;20.144;2024-01-30T03:52:07;13.98;;;10.70;;
36651;SDS011;53334;51.976;20.144;2024-01-30T03:54:42;13.50;;;10.65;;
36651;SDS011;53334;51.976;20.144;2024-01-30T03:57:15;13.82;;;10.43;;
36651;SDS011;53334;51.976;20.144;2024-01-30T03:59:48;14.45;;;10.00;;
36651;SDS011;53334;51.976;20.144;2024-01-30T04:02:21;13.70;;;9.70;;
36651;SDS011;53334;51.976;20.144;2024-01-30T04:04:55;14.10;;;9.27;;
36651;SDS011;53334;51.976;20.144;2024-01-30T04:07:28;13.32;;;10.15;;
36651;SDS011;53334;51.976;20.144;2024-01-30T04:10:03;14.45;;;11.23;;
36651;SDS011;53334;51.976;20.144;2024-01-30T04:12:37;15.40;;;10.63;;
36651;SDS011;53334;51.976;20.144;2024-01-30T04:15:11;14.25;;;9.75;;
36651;SDS011;53334;51.976;20.144;2024-01-30T04:17:45;11.98;;;8.65;;
36651;SDS011;53334;51.976;20.144;2024-01-30T04:20:18;11.95;;;10.02;;
36651;SDS011;53334;51.976;20.144;2024-01-30T04:22:52;13.15;;;10.35;;
36651;SDS011;53334;51.976;20.144;2024-01-30T04:25:26;12.20;;;9.48;;
36651;SDS011;53334;51.976;20.144;2024-01-30T04:28:00;13.73;;;9.35;;
36651;SDS011;53334;51.976;20.144;2024-01-30T04:30:33;12.35;;;9.63;;
36651;SDS011;53334;51.976;20.144;2024-01-30T04:33:06;12.85;;;9.82;;
36651;SDS011;53334;51.976;20.144;2024-01-30T04:35:39;13.52;;;9.68;;
36651;SDS011;53334;51.976;20.144;2024-01-30T04:38:13;11.23;;;9.20;;
36651;SDS011;53334;51.976;20.144;2024-01-30T04:41:11;13.40;;;9.82;;
36651;SDS011;53334;51.976;20.144;2024-01-30T04:43:44;16.60;;;11.43;;
36651;SDS011;53334;51.976;20.144;2024-01-30T04:46:17;16.20;;;9.55;;
36651;SDS011;53334;51.976;20.144;2024-01-30T04:48:51;11.93;;;9.63;;
36651;SDS011;53334;51.976;20.144;2024-01-30T04:51:24;17.13;;;9.43;;
36651;SDS011;53334;51.976;20.144;2024-01-30T04:53:57;12.00;;;9.50;;
36651;SDS011;53334;51.976;20.144;2024-01-30T04:56:32;11.95;;;9.27;;
36651;SDS011;53334;51.976;20.144;2024-01-30T04:59:05;10.30;;;8.55;;
36651;SDS011;53334;51.976;20.144;2024-01-30T05:01:40;12.18;;;8.95;;
36651;SDS011;53334;51.976;20.144;2024-01-30T05:04:13;10.93;;;8.73;;
36651;SDS011;53334;51.976;20.144;2024-01-30T05:06:48;11.20;;;8.68;;
36651;SDS011;53334;51.976;20.144;2024-01-30T05:09:21;11.13;;;9.23;;
36651;SDS011;53334;51.976;20.144;2024-01-30T05:11:55;14.20;;;10.10;;
36651;SDS011;53334;51.976;20.144;2024-01-30T05:14:29;11.63;;;8.20;;
36651;SDS011;53334;51.976;20.144;2024-01-30T05:17:02;12.23;;;8.48;;
36651;SDS011;53334;51.976;20.144;2024-01-30T05:19:36;10.85;;;8.50;;
36651;SDS011;53334;51.976;20.144;2024-01-30T05:22:09;12.18;;;8.77;;
36651;SDS011;53334;51.976;20.144;2024-01-30T05:24:47;12.55;;;9.38;;
36651;SDS011;53334;51.976;20.144;2024-01-30T05:27:21;12.23;;;9.25;;
36651;SDS011;53334;51.976;20.144;2024-01-30T05:29:54;15.05;;;8.20;;
36651;SDS011;53334;51.976;20.144;2024-01-30T05:32:28;14.20;;;9.13;;
36651;SDS011;53334;51.976;20.144;2024-01-30T05:35:01;10.93;;;8.35;;
36651;SDS011;53334;51.976;20.144;2024-01-30T05:37:35;12.52;;;8.88;;
36651;SDS011;53334;51.976;20.144;2024-01-30T05:40:08;17.95;;;9.02;;
36651;SDS011;53334;51.976;20.144;2024-01-30T05:42:43;14.50;;;8.65;;
36651;SDS011;53334;51.976;20.144;2024-01-30T05:45:16;12.70;;;8.60;;
36651;SDS011;53334;51.976;20.144;2024-01-30T05:47:50;11.75;;;9.20;;
36651;SDS011;53334;51.976;20.144;2024-01-30T05:50:23;15.43;;;9.02;;
36651;SDS011;53334;51.976;20.144;2024-01-30T05:52:57;13.27;;;9.30;;
36651;SDS011;53334;51.976;20.144;2024-01-30T05:55:31;16.58;;;9.23;;
36651;SDS011;53334;51.976;20.144;2024-01-30T05:58:05;9.70;;;7.80;;
36651;SDS011;53334;51.976;20.144;2024-01-30T06:00:38;13.27;;;8.52;;
36651;SDS011;53334;51.976;20.144;2024-01-30T06:03:12;12.27;;;8.05;;
36651;SDS011;53334;51.976;20.144;2024-01-30T06:05:45;12.18;;;8.10;;
36651;SDS011;53334;51.976;20.144;2024-01-30T06:08:18;16.88;;;9.13;;
36651;SDS011;53334;51.976;20.144;2024-01-30T06:10:51;11.45;;;8.15;;
36651;SDS011;53334;51.976;20.144;2024-01-30T06:13:26;11.93;;;8.70;;
36651;SDS011;53334;51.976;20.144;2024-01-30T06:16:02;13.07;;;8.18;;
36651;SDS011;53334;51.976;20.144;2024-01-30T06:18:35;11.50;;;8.82;;
36651;SDS011;53334;51.976;20.144;2024-01-30T06:21:08;9.77;;;7.95;;
36651;SDS011;53334;51.976;20.144;2024-01-30T06:23:43;12.27;;;8.52;;
36651;SDS011;53334;51.976;20.144;2024-01-30T06:26:17;11.00;;;8.25;;
36651;SDS011;53334;51.976;20.144;2024-01-30T06:28:51;12.00;;;8.30;;
36651;SDS011;53334;51.976;20.144;2024-01-30T06:31:24;10.60;;;7.93;;
36651;SDS011;53334;51.976;20.144;2024-01-30T06:33:58;9.73;;;7.65;;
36651;SDS011;53334;51.976;20.144;2024-01-30T06:36:31;11.23;;;8.32;;
36651;SDS011;53334;51.976;20.144;2024-01-30T06:39:04;15.25;;;8.95;;
36651;SDS011;53334;51.976;20.144;2024-01-30T06:41:37;9.15;;;7.68;;
36651;SDS011;53334;51.976;20.144;2024-01-30T06:44:12;11.73;;;8.50;;
36651;SDS011;53334;51.976;20.144;2024-01-30T06:46:45;11.18;;;9.35;;
36651;SDS011;53334;51.976;20.144;2024-01-30T06:49:18;11.02;;;8.60;;
36651;SDS011;53334;51.976;20.144;2024-01-30T06:51:53;10.95;;;9.23;;
36651;SDS011;53334;51.976;20.144;2024-01-30T06:54:26;11.13;;;7.88;;
36651;SDS011;53334;51.976;20.144;2024-01-30T06:57:00;12.43;;;9.10;;
36651;SDS011;53334;51.976;20.144;2024-01-30T06:59:34;11.30;;;7.45;;
36651;SDS011;53334;51.976;20.144;2024-01-30T07:02:07;13.52;;;8.43;;
36651;SDS011;53334;51.976;20.144;2024-01-30T07:04:41;15.35;;;8.55;;
36651;SDS011;53334;51.976;20.144;2024-01-30T07:07:18;12.82;;;8.35;;
36651;SDS011;53334;51.976;20.144;2024-01-30T07:09:51;10.13;;;8.18;;
36651;SDS011;53334;51.976;20.144;2024-01-30T07:12:28;10.63;;;8.32;;
36651;SDS011;53334;51.976;20.144;2024-01-30T07:15:05;15.40;;;8.40;;
36651;SDS011;53334;51.976;20.144;2024-01-30T07:17:40;11.38;;;8.43;;
36651;SDS011;53334;51.976;20.144;2024-01-30T07:20:13;11.18;;;8.27;;
36651;SDS011;53334;51.976;20.144;2024-01-30T07:22:48;14.07;;;8.90;;
36651;SDS011;53334;51.976;20.144;2024-01-30T07:25:22;9.65;;;7.47;;
36651;SDS011;53334;51.976;20.144;2024-01-30T07:27:58;10.13;;;8.30;;
36651;SDS011;53334;51.976;20.144;2024-01-30T07:30:33;13.25;;;8.43;;
36651;SDS011;53334;51.976;20.144;2024-01-30T07:33:06;10.57;;;8.57;;
36651;SDS011;53334;51.976;20.144;2024-01-30T07:35:40;11.55;;;8.55;;
36651;SDS011;53334;51.976;20.144;2024-01-30T07:38:13;12.18;;;8.15;;
36651;SDS011;53334;51.976;20.144;2024-01-30T07:40:47;12.25;;;8.73;;
36651;SDS011;53334;51.976;20.144;2024-01-30T07:43:20;11.63;;;7.65;;
36651;SDS011;53334;51.976;20.144;2024-01-30T07:45:55;11.23;;;7.80;;
36651;SDS011;53334;51.976;20.144;2024-01-30T07:48:28;12.18;;;8.85;;
36651;SDS011;53334;51.976;20.144;2024-01-30T07:51:02;11.35;;;7.85;;
36651;SDS011;53334;51.976;20.144;2024-01-30T07:53:36;10.45;;;7.45;;
36651;SDS011;53334;51.976;20.144;2024-01-30T07:56:09;11.00;;;8.55;;
36651;SDS011;53334;51.976;20.144;2024-01-30T07:58:42;12.52;;;9.18;;
36651;SDS011;53334;51.976;20.144;2024-01-30T08:01:16;12.00;;;7.75;;
36651;SDS011;53334;51.976;20.144;2024-01-30T08:03:49;9.13;;;7.32;;
36651;SDS011;53334;51.976;20.144;2024-01-30T08:06:22;9.30;;;7.63;;
36651;SDS011;53334;51.976;20.144;2024-01-30T08:08:55;10.60;;;7.68;;
36651;SDS011;53334;51.976;20.144;2024-01-30T08:11:30;17.58;;;8.10;;
36651;SDS011;53334;51.976;20.144;2024-01-30T08:14:03;11.57;;;7.97;;
36651;SDS011;53334;51.976;20.144;2024-01-30T08:16:37;12.70;;;6.77;;
36651;SDS011;53334;51.976;20.144;2024-01-30T08:19:10;10.63;;;7.35;;
36651;SDS011;53334;51.976;20.144;2024-01-30T08:21:44;9.65;;;7.68;;
36651;SDS011;53334;51.976;20.144;2024-01-30T08:24:17;17.70;;;7.95;;
36651;SDS011;53334;51.976;20.144;2024-01-30T08:26:50;11.05;;;7.60;;
36651;SDS011;53334;51.976;20.144;2024-01-30T08:29:23;11.15;;;7.72;;
36651;SDS011;53334;51.976;20.144;2024-01-30T08:31:57;16.80;;;8.05;;
36651;SDS011;53334;51.976;20.144;2024-01-30T08:34:30;14.48;;;7.70;;
36651;SDS011;53334;51.976;20.144;2024-01-30T08:37:03;13.65;;;8.02;;
36651;SDS011;53334;51.976;20.144;2024-01-30T08:39:37;16.50;;;7.88;;
36651;SDS011;53334;51.976;20.144;2024-01-30T08:42:10;13.20;;;8.18;;
36651;SDS011;53334;51.976;20.144;2024-01-30T08:44:43;17.77;;;7.72;;
36651;SDS011;53334;51.976;20.144;2024-01-30T08:47:17;13.43;;;7.85;;
36651;SDS011;53334;51.976;20.144;2024-01-30T08:49:51;14.80;;;7.50;;
36651;SDS011;53334;51.976;20.144;2024-01-30T08:52:24;9.88;;;7.25;;
36651;SDS011;53334;51.976;20.144;2024-01-30T08:57:31;12.23;;;7.15;;
36651;SDS011;53334;51.976;20.144;2024-01-30T09:00:05;12.65;;;7.25;;
36651;SDS011;53334;51.976;20.144;2024-01-30T09:02:42;15.35;;;6.97;;
36651;SDS011;53334;51.976;20.144;2024-01-30T09:05:16;14.85;;;8.43;;
36651;SDS011;53334;51.976;20.144;2024-01-30T09:07:49;9.25;;;7.43;;
36651;SDS011;53334;51.976;20.144;2024-01-30T09:10:22;12.70;;;7.38;;
36651;SDS011;53334;51.976;20.144;2024-01-30T09:12:56;16.67;;;7.78;;
36651;SDS011;53334;51.976;20.144;2024-01-30T09:15:29;12.38;;;8.38;;
36651;SDS011;53334;51.976;20.144;2024-01-30T09:18:04;12.73;;;7.30;;
36651;SDS011;53334;51.976;20.144;2024-01-30T09:20:37;9.43;;;7.25;;
36651;SDS011;53334;51.976;20.144;2024-01-30T09:23:10;16.38;;;8.18;;
36651;SDS011;53334;51.976;20.144;2024-01-30T09:25:43;10.82;;;7.30;;
36651;SDS011;53334;51.976;20.144;2024-01-30T09:28:17;12.90;;;7.93;;
36651;SDS011;53334;51.976;20.144;2024-01-30T09:30:50;11.05;;;7.85;;
36651;SDS011;53334;51.976;20.144;2024-01-30T09:33:24;14.05;;;7.85;;
36651;SDS011;53334;51.976;20.144;2024-01-30T09:35:58;10.95;;;6.60;;
36651;SDS011;53334;51.976;20.144;2024-01-30T09:38:31;11.55;;;7.20;;
36651;SDS011;53334;51.976;20.144;2024-01-30T09:41:05;11.98;;;7.70;;
36651;SDS011;53334;51.976;20.144;2024-01-30T09:43:42;14.23;;;8.00;;
36651;SDS011;53334;51.976;20.144;2024-01-30T09:46:20;13.98;;;7.25;;
36651;SDS011;53334;51.976;20.144;2024-01-30T09:48:57;9.95;;;6.75;;
36651;SDS011;53334;51.976;20.144;2024-01-30T09:51:30;12.07;;;7.20;;
36651;SDS011;53334;51.976;20.144;2024-01-30T09:54:04;12.65;;;7.25;;
36651;SDS011;53334;51.976;20.144;2024-01-30T09:56:37;9.88;;;7.40;;
36651;SDS011;53334;51.976;20.144;2024-01-30T09:59:10;11.90;;;7.75;;
36651;SDS011;53334;51.976;20.144;2024-01-30T10:01:43;13.52;;;7.07;;
36651;SDS011;53334;51.976;20.144;2024-01-30T10:04:18;10.40;;;7.68;;
36651;SDS011;53334;51.976;20.144;2024-01-30T10:06:52;9.95;;;6.93;;
36651;SDS011;53334;51.976;20.144;2024-01-30T10:09:25;10.82;;;7.03;;
36651;SDS011;53334;51.976;20.144;2024-01-30T10:11:59;10.88;;;7.32;;
36651;SDS011;53334;51.976;20.144;2024-01-30T10:14:32;11.32;;;7.43;;
36651;SDS011;53334;51.976;20.144;2024-01-30T10:17:07;10.27;;;7.15;;
36651;SDS011;53334;51.976;20.144;2024-01-30T10:19:53;10.80;;;7.45;;
36651;SDS011;53334;51.976;20.144;2024-01-30T10:22:27;10.85;;;6.88;;
36651;SDS011;53334;51.976;20.144;2024-01-30T10:25:00;9.18;;;6.65;;
36651;SDS011;53334;51.976;20.144;2024-01-30T10:27:39;10.38;;;7.22;;
36651;SDS011;53334;51.976;20.144;2024-01-30T10:30:12;9.65;;;7.00;;
36651;SDS011;53334;51.976;20.144;2024-01-30T10:32:46;10.20;;;7.15;;
36651;SDS011;53334;51.976;20.144;2024-01-30T10:35:20;20.00;;;10.55;;
36651;SDS011;53334;51.976;20.144;2024-01-30T10:37:54;17.90;;;12.57;;
36651;SDS011;53334;51.976;20.144;2024-01-30T10:40:29;21.77;;;13.00;;
36651;SDS011;53334;51.976;20.144;2024-01-30T10:43:04;16.45;;;11.32;;
36651;SDS011;53334;51.976;20.144;2024-01-30T10:45:39;16.42;;;10.90;;
36651;SDS011;53334;51.976;20.144;2024-01-30T10:48:17;20.80;;;12.88;;
36651;SDS011;53334;51.976;20.144;2024-01-30T10:50:56;17.30;;;11.27;;
36651;SDS011;53334;51.976;20.144;2024-01-30T10:53:32;14.93;;;10.45;;
36651;SDS011;53334;51.976;20.144;2024-01-30T10:58:39;14.77;;;10.20;;
36651;SDS011;53334;51.976;20.144;2024-01-30T11:01:12;16.23;;;10.85;;
36651;SDS011;53334;51.976;20.144;2024-01-30T11:03:47;17.05;;;11.15;;
36651;SDS011;53334;51.976;20.144;2024-01-30T11:06:23;17.23;;;10.93;;
36651;SDS011;53334;51.976;20.144;2024-01-30T11:09:00;14.73;;;10.02;;
36651;SDS011;53334;51.976;20.144;2024-01-30T11:11:47;18.30;;;11.05;;
36651;SDS011;53334;51.976;20.144;2024-01-30T11:14:24;16.90;;;11.38;;
36651;SDS011;53334;51.976;20.144;2024-01-30T11:16:57;14.50;;;10.07;;
36651;SDS011;53334;51.976;20.144;2024-01-30T11:19:31;15.68;;;10.73;;
36651;SDS011;53334;51.976;20.144;2024-01-30T11:22:07;15.15;;;10.32;;
36651;SDS011;53334;51.976;20.144;2024-01-30T11:24:43;15.80;;;10.50;;
36651;SDS011;53334;51.976;20.144;2024-01-30T11:27:20;15.98;;;10.23;;
36651;SDS011;53334;51.976;20.144;2024-01-30T11:29:54;16.08;;;10.55;;
36651;SDS011;53334;51.976;20.144;2024-01-30T11:32:34;14.90;;;10.93;;
36651;SDS011;53334;51.976;20.144;2024-01-30T11:35:08;15.85;;;11.38;;
36651;SDS011;53334;51.976;20.144;2024-01-30T11:37:45;15.82;;;10.80;;
36651;SDS011;53334;51.976;20.144;2024-01-30T11:40:21;17.23;;;11.45;;
36651;SDS011;53334;51.976;20.144;2024-01-30T11:45:27;17.20;;;9.80;;
36651;SDS011;53334;51.976;20.144;2024-01-30T11:48:01;17.40;;;11.25;;
36651;SDS011;53334;51.976;20.144;2024-01-30T11:50:37;18.42;;;10.57;;
36651;SDS011;53334;51.976;20.144;2024-01-30T11:53:12;17.15;;;10.63;;
36651;SDS011;53334;51.976;20.144;2024-01-30T11:55:49;18.95;;;11.02;;
36651;SDS011;53334;51.976;20.144;2024-01-30T11:58:24;15.18;;;10.23;;
36651;SDS011;53334;51.976;20.144;2024-01-30T12:00:58;14.93;;;10.60;;
36651;SDS011;53334;51.976;20.144;2024-01-30T12:03:31;14.48;;;10.07;;
36651;SDS011;53334;51.976;20.144;2024-01-30T12:06:05;14.50;;;9.55;;
36651;SDS011;53334;51.976;20.144;2024-01-30T12:08:40;14.10;;;9.25;;
36651;SDS011;53334;51.976;20.144;2024-01-30T12:11:13;14.98;;;9.43;;
36651;SDS011;53334;51.976;20.144;2024-01-30T12:13:46;15.07;;;9.38;;
36651;SDS011;53334;51.976;20.144;2024-01-30T12:16:19;11.85;;;8.98;;
36651;SDS011;53334;51.976;20.144;2024-01-30T12:18:59;11.15;;;7.85;;
36651;SDS011;53334;51.976;20.144;2024-01-30T12:21:34;14.27;;;9.23;;
36651;SDS011;53334;51.976;20.144;2024-01-30T12:24:09;10.88;;;8.45;;
36651;SDS011;53334;51.976;20.144;2024-01-30T12:26:42;11.63;;;8.88;;
36651;SDS011;53334;51.976;20.144;2024-01-30T12:29:41;13.75;;;8.60;;
36651;SDS011;53334;51.976;20.144;2024-01-30T12:32:15;14.57;;;9.35;;
36651;SDS011;53334;51.976;20.144;2024-01-30T12:37:31;14.43;;;9.10;;
36651;SDS011;53334;51.976;20.144;2024-01-30T12:40:07;13.73;;;9.20;;
36651;SDS011;53334;51.976;20.144;2024-01-30T12:42:41;12.52;;;9.43;;
36651;SDS011;53334;51.976;20.144;2024-01-30T12:47:51;14.73;;;8.32;;
36651;SDS011;53334;51.976;20.144;2024-01-30T12:52:58;14.55;;;8.60;;
36651;SDS011;53334;51.976;20.144;2024-01-30T12:55:33;12.32;;;8.07;;
36651;SDS011;53334;51.976;20.144;2024-01-30T12:58:06;11.27;;;8.27;;
36651;SDS011;53334;51.976;20.144;2024-01-30T13:00:39;11.55;;;7.55;;
36651;SDS011;53334;51.976;20.144;2024-01-30T13:03:14;12.13;;;8.25;;
36651;SDS011;53334;51.976;20.144;2024-01-30T13:05:47;14.98;;;8.98;;
36651;SDS011;53334;51.976;20.144;2024-01-30T13:08:21;13.13;;;8.93;;
36651;SDS011;53334;51.976;20.144;2024-01-30T13:10:55;11.57;;;8.25;;
36651;SDS011;53334;51.976;20.144;2024-01-30T13:13:29;13.13;;;8.63;;
36651;SDS011;53334;51.976;20.144;2024-01-30T13:16:03;10.68;;;7.90;;
36651;SDS011;53334;51.976;20.144;2024-01-30T13:18:37;12.27;;;8.02;;
36651;SDS011;53334;51.976;20.144;2024-01-30T13:21:10;12.15;;;8.70;;
36651;SDS011;53334;51.976;20.144;2024-01-30T13:23:44;10.07;;;7.88;;
36651;SDS011;53334;51.976;20.144;2024-01-30T13:26:18;10.60;;;8.00;;
36651;SDS011;53334;51.976;20.144;2024-01-30T13:28:52;11.73;;;7.13;;
36651;SDS011;53334;51.976;20.144;2024-01-30T13:31:25;11.90;;;8.70;;
36651;SDS011;53334;51.976;20.144;2024-01-30T13:33:59;11.10;;;8.48;;
36651;SDS011;53334;51.976;20.144;2024-01-30T13:36:34;10.88;;;7.32;;
36651;SDS011;53334;51.976;20.144;2024-01-30T13:39:07;11.07;;;8.63;;
36651;SDS011;53334;51.976;20.144;2024-01-30T13:44:15;11.60;;;8.00;;
36651;SDS011;53334;51.976;20.144;2024-01-30T13:46:49;11.75;;;7.25;;
36651;SDS011;53334;51.976;20.144;2024-01-30T13:49:22;13.48;;;8.30;;
36651;SDS011;53334;51.976;20.144;2024-01-30T13:51:56;14.70;;;7.82;;
36651;SDS011;53334;51.976;20.144;2024-01-30T13:54:29;10.75;;;8.30;;
36651;SDS011;53334;51.976;20.144;2024-01-30T13:57:04;11.75;;;7.47;;
36651;SDS011;53334;51.976;20.144;2024-01-30T13:59:39;8.93;;;7.22;;
36651;SDS011;53334;51.976;20.144;2024-01-30T14:02:12;11.07;;;7.55;;
36651;SDS011;53334;51.976;20.144;2024-01-30T14:04:45;10.65;;;8.18;;
36651;SDS011;53334;51.976;20.144;2024-01-30T14:07:19;11.02;;;7.32;;
36651;SDS011;53334;51.976;20.144;2024-01-30T14:09:52;11.60;;;7.57;;
36651;SDS011;53334;51.976;20.144;2024-01-30T14:12:27;9.75;;;6.97;;
36651;SDS011;53334;51.976;20.144;2024-01-30T14:15:01;14.32;;;8.63;;
36651;SDS011;53334;51.976;20.144;2024-01-30T14:17:49;9.38;;;6.80;;
36651;SDS011;53334;51.976;20.144;2024-01-30T14:20:22;12.13;;;7.97;;
36651;SDS011;53334;51.976;20.144;2024-01-30T14:22:56;10.40;;;7.55;;
36651;SDS011;53334;51.976;20.144;2024-01-30T14:25:30;12.07;;;7.20;;
36651;SDS011;53334;51.976;20.144;2024-01-30T14:28:05;12.77;;;8.32;;
36651;SDS011;53334;51.976;20.144;2024-01-30T14:30:39;12.27;;;8.43;;
36651;SDS011;53334;51.976;20.144;2024-01-30T14:33:12;11.35;;;8.32;;
36651;SDS011;53334;51.976;20.144;2024-01-30T14:35:45;9.52;;;7.68;;
36651;SDS011;53334;51.976;20.144;2024-01-30T14:38:19;12.07;;;8.75;;
36651;SDS011;53334;51.976;20.144;2024-01-30T14:40:52;14.23;;;8.20;;
36651;SDS011;53334;51.976;20.144;2024-01-30T14:43:27;9.90;;;7.70;;
36651;SDS011;53334;51.976;20.144;2024-01-30T14:46:00;14.00;;;7.68;;
36651;SDS011;53334;51.976;20.144;2024-01-30T14:48:34;11.95;;;8.25;;
36651;SDS011;53334;51.976;20.144;2024-01-30T14:51:07;11.23;;;7.70;;
36651;SDS011;53334;51.976;20.144;2024-01-30T14:53:40;15.20;;;8.52;;
36651;SDS011;53334;51.976;20.144;2024-01-30T14:56:13;12.52;;;8.00;;
36651;SDS011;53334;51.976;20.144;2024-01-30T14:58:48;17.17;;;7.45;;
36651;SDS011;53334;51.976;20.144;2024-01-30T15:01:21;14.30;;;7.13;;
36651;SDS011;53334;51.976;20.144;2024-01-30T15:03:55;13.55;;;7.63;;
36651;SDS011;53334;51.976;20.144;2024-01-30T15:06:28;22.60;;;7.82;;
36651;SDS011;53334;51.976;20.144;2024-01-30T15:09:02;20.20;;;7.60;;
36651;SDS011;53334;51.976;20.144;2024-01-30T15:11:36;17.83;;;7.28;;
36651;SDS011;53334;51.976;20.144;2024-01-30T15:14:11;13.82;;;8.05;;
36651;SDS011;53334;51.976;20.144;2024-01-30T15:16:44;13.73;;;8.32;;
36651;SDS011;53334;51.976;20.144;2024-01-30T15:19:18;13.02;;;7.80;;
36651;SDS011;53334;51.976;20.144;2024-01-30T15:21:51;13.40;;;8.02;;
36651;SDS011;53334;51.976;20.144;2024-01-30T15:24:24;14.60;;;7.57;;
36651;SDS011;53334;51.976;20.144;2024-01-30T15:26:57;13.80;;;7.70;;
36651;SDS011;53334;51.976;20.144;2024-01-30T15:29:32;11.73;;;8.10;;
36651;SDS011;53334;51.976;20.144;2024-01-30T15:32:05;13.00;;;7.95;;